Powell, South Dakota
Current Conditions -  °F | °C
As of 11:53 AM on Friday 24 Oct 2014 (Local Time) from KABR Reporting Station
Clear Clear  
Wind Chill: 63°   Ceiling: Unl
Heat Index: 63°   Visibility: 10mi
Dew Point: 40°   Wind: 6mph
Humidity: 43%   Direction: 260°W
Pressure: 29.89"   Gusts: NA
Location:  45.4188°N, 99.0275°W
Report Text: KABR 241653Z AUTO 26005KT 10SM CLR 17/04 A2989 RMK AO2 SLP123 T01720044
Loading
Personal Weather Stations






























Interactive Weather Map
Tropical Storm Tracking
New forecast layout! Learn more

10-Day Weather Forecast

Advertisements
Track Severe Weather on mobile